SBOSBO MEX / MMMX
Speedbird OnlineSpeedbird Online MEX / MMMX

Licenciado Benito Juarez International Airport
08:08 9°C

Location Mexico City, Mexico
Latitude: 19.4363
Longitude: -99.072098
Web Airport Website | Wikipedia
Altitude 2230 Meter / 7316 Feet
Distance 8,941 KM / 5,556 Miles
from London.
Time Zone UTC -6 hours (America/Mexico_City)
Codes IATA: MEX
ICAO: MMMX
Currency £1 equals MXN 23.17
Runways
RunwayLength (m)Surface
05L3952Asphalt
05R3900Asphalt
23L3900Asphalt
23R3952Asphalt
Radio
TypeDescriptionFrequency
APPMEXICO APP121.2
ARRMEXICO ARR129.6
ATISATIS127.65
CLDMEXICO CLNC DEL122.1
DEPMEXICO DEP120.5
GNDGND121
RDOMEXICO INFO126.9
TWRMEXICO TWR118.55
Live ATC
METAR MMMX 311245Z 07005KT 10SM SKC 09/M01 A3032 NOSIG RMK HZY
TAF TAF COR MMMX 311143Z 3112/0112 06005KT P6SM SKC TX24/3121Z TN08/3112Z FM311800 19012KT P6SM SCT020 SCT250 FM010600 34005KT P6SM SCT020
Weather As Of 31 Jan 2023 08:06
Description Clear sky
Wind 7 km/h from East (70°)
Cloud Cover 0%
Precipitation Rain: none, Snow: none
Sunrise 07:11
Sunset 18:27
Lounges American Airlines Admirals Club, International Departure Terminal 1
The Grand Lounge Elite, Terminal 1
Rotations During the last 90 days there were
62 flights from LHR
64 flights to LHR



Support Speedbird Online

© 2017-2023 Speedbird Online